Terminal Aerodrome Forecast
Issued by NWS Twin Cities, MN

Home | Current Version | Previous Version | Text Only | Print | Product List | Glossary Off
Versions: 1 2 3 4 5 6 7 8 9 10 11 12 13 14 15 16 17 18 19 20 21 22 23 24 25 26 27

594
FTUS43 KMPX 040328 AAA
TAFMSP
TAF AMD
KMSP 040328Z 0403/0506 25004KT P6SM BKN070
     FM040800 18004KT P6SM OVC040
     FM041200 20005KT 3SM -SN BR OVC020
      TEMPO 0413/0417 3/4SM -SN BR OVC006
     FM041900 28008KT P6SM OVC015
     FM050000 29005KT P6SM SCT020=

USA.gov is the U.S. government's official web portal to all federal, state and local government web resources and services.